Lake of the Forest, Kansas
Current Conditions -  °F | °C
As of 8:53 AM on Friday 19 Dec 2014 (Local Time) from KIXD Reporting Station
Haze Haze  
Wind Chill: 31°   Ceiling: 500
Heat Index: 31°   Visibility: 4mi
Dew Point: 29°   Wind: 3mph
Humidity: 92%   Direction: 140°SE
Pressure: 30.26"   Gusts: NA
Location:  39.0619°N, 94.8881°W
Report Text: KIXD 191453Z 14003KT 4SM BR OVC005 M01/M02 A3026 RMK AO2 SNB44E53 SLP257 P0000 60000 T10061017 51009
Loading
Personal Weather Stations






























Interactive Weather Map New forecast layout! Learn more

10-Day Weather Forecast

Advertisements
Track Severe Weather on mobile